createdAt,value
2019-01-08T00:00:03.824Z,21.87
2019-01-08T00:02:37.527Z,18.42
2019-01-08T00:05:09.531Z,23.30
2019-01-08T00:07:41.395Z,19.05
2019-01-08T00:10:13.578Z,21.35
2019-01-08T00:12:45.441Z,19.57
2019-01-08T00:15:17.437Z,17.15
2019-01-08T00:17:49.388Z,19.35
2019-01-08T00:20:21.406Z,19.65
2019-01-08T00:22:53.311Z,20.08
2019-01-08T00:25:25.219Z,18.87
2019-01-08T00:27:57.126Z,20.82
2019-01-08T00:30:29.022Z,17.05
2019-01-08T00:33:00.925Z,20.27
2019-01-08T00:35:32.872Z,20.12
2019-01-08T00:38:04.820Z,20.82
2019-01-08T00:40:36.674Z,18.87
2019-01-08T00:43:08.586Z,19.50
2019-01-08T00:45:40.477Z,19.98
2019-01-08T00:48:12.375Z,19.37
2019-01-08T00:50:44.407Z,18.10
2019-01-08T00:53:16.284Z,18.37
2019-01-08T00:55:48.167Z,18.02
2019-01-08T00:58:20.164Z,18.77
2019-01-08T01:00:52.079Z,19.15
2019-01-08T01:03:23.945Z,17.70
2019-01-08T01:05:55.883Z,19.90
2019-01-08T01:08:27.757Z,17.02
2019-01-08T01:10:59.862Z,16.73
2019-01-08T01:13:31.919Z,18.32
2019-01-08T01:16:06.284Z,17.35
2019-01-08T01:18:38.131Z,18.90
2019-01-08T01:21:11.138Z,15.38
2019-01-08T01:23:43.103Z,17.40
2019-01-08T01:26:15.001Z,19.15
2019-01-08T01:28:46.881Z,18.92
2019-01-08T01:31:18.841Z,15.55
2019-01-08T01:33:57.018Z,16.55
2019-01-08T01:36:28.889Z,15.93
2019-01-08T01:39:00.771Z,14.73
2019-01-08T01:41:34.106Z,14.10
2019-01-08T01:44:06.015Z,16.50
2019-01-08T01:46:37.852Z,13.83
2019-01-08T01:49:09.757Z,15.30
2019-01-08T01:51:41.638Z,14.63
2019-01-08T01:54:15.543Z,13.80
2019-01-08T01:56:47.592Z,16.15
2019-01-08T01:59:19.546Z,14.38
2019-01-08T02:01:54.433Z,14.55
2019-01-08T02:04:27.009Z,13.50
2019-01-08T02:06:58.861Z,13.70
2019-01-08T02:09:30.731Z,12.95
2019-01-08T02:12:02.906Z,14.93
2019-01-08T02:14:35.147Z,14.50
2019-01-08T02:17:07.089Z,13.45
2019-01-08T02:19:38.993Z,16.60
2019-01-08T02:22:10.848Z,12.95
2019-01-08T02:24:42.757Z,15.10
2019-01-08T02:27:14.645Z,11.95
2019-01-08T02:29:47.608Z,14.03
2019-01-08T02:32:22.076Z,12.78
2019-01-08T02:34:54.007Z,13.03
2019-01-08T02:37:25.866Z,12.58
2019-01-08T02:39:57.759Z,11.97
2019-01-08T02:42:29.638Z,12.20
2019-01-08T02:45:01.524Z,12.85
2019-01-08T02:54:50.674Z,13.30
2019-01-08T02:57:23.967Z,11.95
2019-01-08T02:59:55.828Z,11.55
2019-01-08T03:02:27.719Z,12.23
2019-01-08T03:04:59.588Z,12.70
2019-01-08T03:07:31.448Z,13.50
2019-01-08T03:10:03.332Z,10.93
2019-01-08T03:12:35.243Z,11.63
2019-01-08T03:15:07.383Z,11.78
2019-01-08T03:17:41.327Z,10.65
2019-01-08T03:20:13.216Z,11.25
2019-01-08T03:22:45.174Z,10.98
2019-01-08T03:25:17.043Z,10.40
2019-01-08T03:27:48.928Z,13.60
2019-01-08T03:30:20.791Z,10.28
2019-01-08T03:32:52.622Z,13.15
2019-01-08T03:35:24.588Z,10.58
2019-01-08T03:37:56.449Z,11.08
2019-01-08T03:40:30.749Z,9.75
2019-01-08T03:43:02.607Z,9.08
2019-01-08T03:45:34.476Z,8.98
2019-01-08T03:48:07.397Z,11.20
2019-01-08T03:50:42.912Z,9.68
2019-01-08T03:53:15.004Z,9.60
2019-01-08T03:55:46.889Z,9.18
2019-01-08T03:58:18.740Z,10.00
2019-01-08T04:00:50.614Z,9.38
2019-01-08T04:03:22.458Z,8.95
2019-01-08T04:05:54.420Z,10.35
2019-01-08T04:08:26.272Z,9.70
2019-01-08T04:10:58.165Z,9.68
2019-01-08T04:13:29.997Z,9.40
2019-01-08T04:16:01.861Z,8.08
2019-01-08T04:18:33.725Z,7.50
2019-01-08T04:21:05.571Z,8.18
2019-01-08T04:23:37.571Z,7.50
2019-01-08T04:26:09.412Z,10.65
2019-01-08T04:28:41.343Z,7.95
2019-01-08T04:31:24.237Z,7.95
2019-01-08T04:33:56.132Z,10.15
2019-01-08T04:36:27.993Z,6.90
2019-01-08T04:39:01.379Z,7.45
2019-01-08T04:41:35.934Z,6.67
2019-01-08T04:44:10.183Z,7.40
2019-01-08T04:46:42.128Z,6.10
2019-01-08T04:49:15.765Z,5.62
2019-01-08T04:51:47.625Z,7.35
2019-01-08T04:54:22.583Z,4.10
2019-01-08T04:56:55.554Z,7.22
2019-01-08T04:59:27.442Z,6.55
2019-01-08T05:02:01.809Z,6.08
2019-01-08T05:04:36.523Z,5.37
2019-01-08T05:07:11.813Z,5.20
2019-01-08T05:09:47.454Z,5.45
2019-01-08T05:12:17.228Z,5.87
2019-01-08T05:14:49.853Z,3.05
2019-01-08T05:17:22.000Z,3.60
2019-01-08T05:19:53.884Z,3.08
2019-01-08T05:22:30.036Z,4.65
2019-01-08T05:25:01.898Z,2.12
2019-01-08T05:27:37.721Z,1.82
2019-01-08T05:30:16.048Z,2.60
2019-01-08T05:32:47.936Z,1.65
2019-01-08T05:35:21.551Z,3.05
2019-01-08T05:37:53.361Z,1.85
2019-01-08T05:40:36.762Z,2.92
2019-01-08T05:43:08.684Z,1.95
2019-01-08T05:45:40.716Z,1.77
2019-01-08T05:48:14.634Z,2.22
2019-01-08T05:50:46.558Z,1.90
2019-01-08T05:53:18.503Z,2.62
2019-01-08T05:55:50.474Z,2.10
2019-01-08T05:58:22.331Z,2.67
2019-01-08T06:00:54.138Z,2.00
2019-01-08T06:03:25.999Z,1.80
2019-01-08T06:05:58.282Z,2.17
2019-01-08T06:08:30.138Z,1.52
2019-01-08T06:11:01.833Z,1.97
2019-01-08T06:13:34.956Z,1.85
2019-01-08T06:16:06.934Z,1.95
2019-01-08T06:18:40.827Z,2.10
2019-01-08T06:21:12.822Z,3.27
2019-01-08T06:23:44.664Z,2.02
2019-01-08T06:26:16.560Z,2.10
2019-01-08T06:28:48.521Z,2.98
2019-01-08T06:31:22.675Z,2.37
2019-01-08T06:33:53.958Z,2.62
2019-01-08T06:36:28.271Z,2.33
2019-01-08T06:39:00.123Z,1.60
2019-01-08T06:41:32.229Z,2.12
2019-01-08T06:44:04.124Z,1.70
2019-01-08T06:46:42.940Z,1.70
2019-01-08T06:49:09.662Z,2.35
2019-01-08T06:51:41.596Z,2.00
2019-01-08T06:54:16.632Z,2.47
2019-01-08T06:56:50.197Z,2.25
2019-01-08T06:59:20.684Z,2.15
2019-01-08T07:01:52.523Z,3.58
2019-01-08T07:04:24.410Z,3.10
2019-01-08T07:06:56.248Z,3.02
2019-01-08T07:09:30.124Z,3.95
2019-01-08T07:12:01.993Z,3.83
2019-01-08T07:14:33.995Z,3.00
2019-01-08T07:17:05.563Z,3.40
2019-01-08T07:19:39.529Z,3.83
2019-01-08T07:22:11.581Z,4.37
2019-01-08T07:24:43.453Z,4.22
2019-01-08T07:27:16.649Z,3.87
2019-01-08T07:29:48.705Z,4.17
2019-01-08T07:32:27.867Z,4.17
2019-01-08T07:34:59.522Z,4.80
2019-01-08T07:37:31.525Z,5.15
2019-01-08T07:40:03.413Z,4.22
2019-01-08T07:42:35.427Z,3.92
2019-01-08T07:45:08.804Z,4.05
2019-01-08T07:47:40.364Z,5.13
2019-01-08T07:50:12.479Z,4.35
2019-01-08T07:52:48.630Z,4.92
2019-01-08T07:55:20.483Z,5.83
2019-01-08T07:57:55.517Z,6.15
2019-01-08T08:00:27.047Z,4.87
2019-01-08T08:03:00.746Z,5.40
2019-01-08T08:05:32.626Z,5.50
2019-01-08T08:08:10.447Z,5.78
2019-01-08T08:10:45.262Z,6.30
2019-01-08T08:13:17.103Z,6.83
2019-01-08T08:15:54.432Z,5.50
2019-01-08T08:18:29.021Z,5.30
2019-01-08T08:21:03.181Z,5.55
2019-01-08T08:23:36.365Z,5.00
2019-01-08T08:26:08.201Z,7.78
2019-01-08T08:28:42.510Z,6.80
2019-01-08T08:31:16.511Z,6.70
2019-01-08T08:33:50.167Z,6.65
2019-01-08T08:36:24.562Z,5.55
2019-01-08T08:38:57.504Z,7.00
2019-01-08T08:41:32.164Z,6.17
2019-01-08T08:44:07.082Z,7.87
2019-01-08T08:46:44.927Z,7.10
2019-01-08T08:49:16.536Z,6.27
2019-01-08T08:51:52.488Z,6.80
2019-01-08T08:54:24.398Z,11.00
2019-01-08T08:56:56.274Z,6.92
2019-01-08T08:59:36.716Z,6.87
2019-01-08T09:02:08.577Z,6.30
2019-01-08T09:04:45.044Z,5.93
2019-01-08T09:07:23.850Z,6.80
2019-01-08T09:09:57.655Z,6.37
2019-01-08T09:12:32.642Z,5.03
2019-01-08T09:15:10.290Z,4.60
2019-01-08T09:17:42.183Z,8.40
2019-01-08T09:20:14.472Z,6.15
2019-01-08T09:22:49.803Z,7.30
2019-01-08T09:25:21.648Z,7.22
2019-01-08T09:27:56.635Z,7.20
2019-01-08T09:30:28.897Z,8.00
2019-01-08T09:33:00.493Z,5.90
2019-01-08T09:35:32.115Z,7.13
2019-01-08T09:38:11.240Z,6.73
2019-01-08T09:40:48.184Z,7.73
2019-01-08T09:43:23.198Z,7.60
2019-01-08T09:45:56.782Z,5.90
2019-01-08T09:48:31.132Z,4.00
2019-01-08T09:51:02.729Z,5.07
2019-01-08T09:53:35.609Z,7.50
2019-01-08T09:56:08.959Z,6.23
2019-01-08T09:58:45.215Z,6.03
2019-01-08T10:01:23.765Z,5.05
2019-01-08T10:03:52.650Z,6.97
2019-01-08T10:06:27.034Z,8.27
2019-01-08T10:08:58.674Z,6.20
2019-01-08T10:11:31.897Z,7.50
2019-01-08T10:14:03.480Z,7.17
2019-01-08T10:16:36.881Z,7.23
2019-01-08T10:19:08.481Z,8.17
2019-01-08T10:21:41.628Z,9.10
2019-01-08T10:24:13.244Z,7.20
2019-01-08T10:26:47.674Z,6.37
2019-01-08T10:29:19.390Z,5.03
2019-01-08T10:31:55.454Z,5.83
2019-01-08T10:34:27.053Z,7.50
2019-01-08T10:37:00.576Z,7.20
2019-01-08T10:39:35.690Z,12.40
2019-01-08T10:42:07.454Z,8.73
2019-01-08T10:44:41.270Z,9.20
2019-01-08T10:47:15.962Z,12.13
2019-01-08T10:49:51.479Z,7.47
2019-01-08T10:52:26.280Z,11.90
2019-01-08T10:54:58.020Z,11.20
2019-01-08T10:57:29.647Z,6.43
2019-01-08T11:00:03.816Z,11.73
2019-01-08T11:02:38.445Z,8.47
2019-01-08T11:05:12.798Z,9.38
2019-01-08T11:07:52.301Z,7.80
2019-01-08T11:10:25.286Z,11.43
2019-01-08T11:12:56.900Z,9.97
2019-01-08T11:15:34.622Z,9.00
2019-01-08T11:18:09.353Z,7.30
2019-01-08T11:20:41.204Z,7.80
2019-01-08T11:23:12.830Z,10.47
2019-01-08T11:25:44.768Z,7.93
2019-01-08T11:28:19.180Z,7.70
2019-01-08T11:30:52.543Z,9.53
2019-01-08T11:33:24.291Z,7.13
2019-01-08T11:35:59.083Z,8.80
2019-01-08T11:38:29.221Z,6.67
2019-01-08T11:41:06.035Z,7.43
2019-01-08T11:43:37.905Z,5.70
2019-01-08T11:46:11.951Z,4.40
2019-01-08T11:48:43.598Z,10.53
2019-01-08T11:51:20.568Z,7.53
2019-01-08T11:53:56.768Z,5.70
2019-01-08T11:56:37.342Z,8.17
2019-01-08T11:59:09.709Z,5.63
2019-01-08T12:01:45.105Z,6.37
2019-01-08T12:04:16.683Z,6.80
2019-01-08T12:06:48.753Z,6.50
2019-01-08T12:09:20.425Z,6.13
2019-01-08T12:11:55.160Z,10.10
2019-01-08T12:14:27.018Z,5.47
2019-01-08T12:16:58.611Z,7.70
2019-01-08T12:19:30.225Z,7.63
2019-01-08T12:22:03.861Z,4.50
2019-01-08T12:24:35.590Z,6.30
2019-01-08T12:27:07.791Z,11.43
2019-01-08T12:29:39.383Z,10.70
2019-01-08T12:32:14.891Z,6.30
2019-01-08T12:34:47.810Z,6.40
2019-01-08T12:37:23.797Z,6.33
2019-01-08T12:40:02.506Z,5.70
2019-01-08T12:42:34.155Z,7.00
2019-01-08T12:45:08.091Z,6.85
2019-01-08T12:47:42.703Z,14.60
2019-01-08T12:50:14.307Z,13.63
2019-01-08T12:52:47.443Z,8.93
2019-01-08T12:55:22.364Z,14.20
2019-01-08T12:57:54.357Z,11.47
2019-01-08T13:00:31.030Z,11.70
2019-01-08T13:03:06.085Z,4.90
2019-01-08T13:05:37.679Z,6.77
2019-01-08T13:08:10.935Z,10.63
2019-01-08T13:10:42.478Z,9.33
2019-01-08T13:13:22.307Z,6.53
2019-01-08T13:15:53.902Z,9.03
2019-01-08T13:18:31.663Z,9.13
2019-01-08T13:21:06.060Z,9.27
2019-01-08T13:23:40.137Z,9.40
2019-01-08T13:26:14.541Z,7.57
2019-01-08T13:28:47.873Z,9.47
2019-01-08T13:31:23.186Z,7.57
2019-01-08T13:33:59.824Z,11.00
2019-01-08T13:36:33.839Z,8.38
2019-01-08T13:39:08.903Z,8.00
2019-01-08T13:41:42.669Z,8.48
2019-01-08T13:44:14.552Z,4.65
2019-01-08T13:46:46.406Z,5.10
2019-01-08T13:49:26.642Z,6.13
2019-01-08T13:52:01.266Z,7.80
2019-01-08T13:54:34.995Z,11.85
2019-01-08T13:57:06.590Z,9.47
2019-01-08T13:59:38.191Z,8.80
2019-01-08T14:02:12.512Z,7.42
2019-01-08T14:04:44.130Z,7.97
2019-01-08T14:07:22.322Z,11.83
2019-01-08T14:09:56.808Z,7.63
2019-01-08T14:12:29.222Z,5.40
2019-01-08T14:15:02.467Z,8.53
2019-01-08T14:17:35.837Z,10.55
2019-01-08T14:20:09.026Z,12.45
2019-01-08T14:22:44.017Z,8.80
2019-01-08T14:25:21.911Z,11.00
2019-01-08T14:27:56.404Z,8.00
2019-01-08T14:30:32.125Z,10.45
2019-01-08T14:33:08.064Z,6.33
2019-01-08T14:35:44.452Z,6.87
2019-01-08T14:38:21.336Z,9.20
2019-01-08T14:40:54.269Z,8.37
2019-01-08T14:43:26.421Z,11.50
2019-01-08T14:45:58.018Z,11.43
2019-01-08T14:48:33.357Z,8.65
2019-01-08T14:51:04.969Z,8.53
2019-01-08T14:53:36.862Z,12.47
2019-01-08T14:56:08.745Z,9.90
2019-01-08T14:58:40.373Z,9.50
2019-01-08T15:01:12.150Z,9.53
2019-01-08T15:03:43.873Z,8.27
2019-01-08T15:06:19.157Z,6.50
2019-01-08T15:08:50.767Z,8.53
2019-01-08T15:11:25.172Z,8.60
2019-01-08T15:13:57.427Z,4.53
2019-01-08T15:16:38.068Z,5.10
2019-01-08T15:19:14.774Z,9.38
2019-01-08T15:21:46.768Z,8.45
2019-01-08T15:24:24.571Z,8.00
2019-01-08T15:26:58.909Z,8.65
2019-01-08T15:29:33.708Z,10.30
2019-01-08T15:32:08.751Z,8.25
2019-01-08T15:34:42.223Z,7.53
2019-01-08T15:37:14.110Z,7.33
2019-01-08T15:39:50.839Z,6.70
2019-01-08T15:42:24.518Z,8.58
2019-01-08T15:44:56.351Z,8.70
2019-01-08T15:47:28.349Z,8.23
2019-01-08T15:50:01.861Z,9.50
2019-01-08T15:52:33.744Z,7.65
2019-01-08T15:55:05.948Z,9.00
2019-01-08T15:57:37.807Z,7.90
2019-01-08T16:00:10.264Z,6.23
2019-01-08T16:02:55.838Z,8.40
2019-01-08T16:05:31.728Z,6.95
2019-01-08T16:08:06.522Z,6.33
2019-01-08T16:10:38.388Z,9.18
2019-01-08T16:13:13.595Z,9.60
2019-01-08T16:15:48.029Z,12.28
2019-01-08T16:18:26.373Z,6.90
2019-01-08T16:21:04.754Z,10.77
2019-01-08T16:23:38.777Z,7.25
2019-01-08T16:26:12.418Z,7.00
2019-01-08T16:28:46.460Z,10.68
2019-01-08T16:31:25.398Z,11.10
2019-01-08T16:34:01.556Z,8.13
2019-01-08T16:36:35.271Z,7.62
2019-01-08T16:39:11.260Z,6.17
2019-01-08T16:41:46.739Z,12.85
2019-01-08T16:44:18.636Z,8.58
2019-01-08T16:46:50.498Z,8.03
2019-01-08T16:49:26.632Z,9.03
2019-01-08T16:52:00.176Z,6.95
2019-01-08T16:54:32.074Z,7.33
2019-01-08T16:57:06.929Z,5.53
2019-01-08T16:59:40.391Z,5.50
2019-01-08T17:02:12.378Z,7.10
2019-01-08T17:04:47.065Z,9.57
2019-01-08T17:07:21.501Z,6.33
2019-01-08T17:09:55.896Z,6.28
2019-01-08T17:12:29.354Z,4.37
2019-01-08T17:15:01.546Z,7.25
2019-01-08T17:17:33.179Z,5.93
2019-01-08T17:20:05.620Z,6.60
2019-01-08T17:22:40.683Z,5.30
2019-01-08T17:25:21.412Z,6.87
2019-01-08T17:27:55.944Z,5.90
2019-01-08T17:30:28.887Z,9.48
2019-01-08T17:33:04.851Z,20.05
2019-01-08T17:35:38.985Z,18.77
2019-01-08T17:38:15.974Z,7.00
2019-01-08T17:40:50.270Z,4.78
2019-01-08T17:43:22.223Z,10.63
2019-01-08T17:45:58.534Z,6.28
2019-01-08T17:48:33.987Z,5.97
2019-01-08T17:51:07.603Z,8.23
2019-01-08T17:53:42.741Z,8.90
2019-01-08T17:56:20.904Z,4.90
2019-01-08T17:59:03.447Z,12.80
2019-01-08T18:01:40.101Z,8.00
2019-01-08T18:04:12.298Z,9.85
2019-01-08T18:06:44.311Z,9.30
2019-01-08T18:09:17.775Z,9.10
2019-01-08T18:11:57.023Z,6.08
2019-01-08T18:14:30.579Z,7.60
2019-01-08T18:17:08.340Z,7.58
2019-01-08T18:19:40.287Z,13.03
2019-01-08T18:22:12.225Z,7.28
2019-01-08T18:24:44.452Z,6.80
2019-01-08T18:27:16.366Z,5.30
2019-01-08T18:29:49.776Z,9.40
2019-01-08T18:32:21.664Z,10.10
2019-01-08T18:34:53.551Z,12.18
2019-01-08T18:37:25.538Z,7.12
2019-01-08T18:39:57.451Z,12.07
2019-01-08T18:42:29.453Z,6.00
2019-01-08T18:45:01.364Z,6.35
2019-01-08T18:47:33.135Z,6.13
2019-01-08T18:50:07.671Z,8.00
2019-01-08T18:52:39.379Z,8.47
2019-01-08T18:55:11.098Z,11.73
2019-01-08T18:57:42.810Z,6.60
2019-01-08T19:00:14.736Z,10.10
2019-01-08T19:02:46.692Z,6.85
2019-01-08T19:05:18.582Z,9.20
2019-01-08T19:07:50.497Z,10.32
2019-01-08T19:10:22.482Z,7.10
2019-01-08T19:12:56.038Z,8.10
2019-01-08T19:15:28.072Z,9.18
2019-01-08T19:17:59.982Z,6.80
2019-01-08T19:20:34.618Z,6.15
2019-01-08T19:23:06.519Z,5.45
2019-01-08T19:25:38.615Z,5.80
2019-01-08T19:28:11.980Z,5.80
2019-01-08T19:30:43.922Z,5.72
2019-01-08T19:33:25.363Z,7.92
2019-01-08T19:35:57.254Z,7.22
2019-01-08T19:38:30.784Z,8.53
2019-01-08T19:41:02.747Z,7.53
2019-01-08T19:43:38.525Z,7.85
2019-01-08T19:46:10.477Z,11.08
2019-01-08T19:48:42.383Z,10.03
2019-01-08T19:51:14.385Z,8.23
2019-01-08T19:53:46.380Z,12.37
2019-01-08T19:56:24.498Z,7.60
2019-01-08T19:58:57.255Z,11.30
2019-01-08T20:01:30.733Z,9.20
2019-01-08T20:04:03.905Z,9.20
2019-01-08T20:06:36.077Z,7.53
2019-01-08T20:09:09.941Z,7.50
2019-01-08T20:11:41.911Z,9.15
2019-01-08T20:14:14.104Z,8.05
2019-01-08T20:16:47.172Z,9.95
2019-01-08T20:19:19.218Z,8.43
2019-01-08T20:22:02.861Z,5.05
2019-01-08T20:24:34.748Z,6.37
2019-01-08T20:27:06.892Z,7.87
2019-01-08T20:29:38.795Z,5.15
2019-01-08T20:32:10.694Z,7.92
2019-01-08T20:34:42.600Z,7.05
2019-01-08T20:37:14.549Z,6.60
2019-01-08T20:39:46.444Z,7.33
2019-01-08T20:42:18.397Z,4.87
2019-01-08T20:44:50.403Z,11.50
2019-01-08T20:47:22.317Z,8.13
2019-01-08T20:49:57.541Z,8.08
2019-01-08T20:52:29.382Z,6.80
2019-01-08T20:55:01.310Z,6.72
2019-01-08T20:57:33.202Z,8.50
2019-01-08T21:00:06.155Z,7.75
2019-01-08T21:02:38.128Z,9.05
2019-01-08T21:05:10.101Z,8.38
2019-01-08T21:07:42.011Z,14.78
2019-01-08T21:10:13.909Z,10.53
2019-01-08T21:12:45.802Z,9.33
2019-01-08T21:15:17.776Z,9.48
2019-01-08T21:17:49.677Z,5.53
2019-01-08T21:20:21.635Z,8.73
2019-01-08T21:22:53.605Z,6.83
2019-01-08T21:25:25.532Z,11.97
2019-01-08T21:27:58.476Z,8.08
2019-01-08T21:30:30.583Z,8.28
2019-01-08T21:33:02.568Z,4.90
2019-01-08T21:35:34.451Z,7.42
2019-01-08T21:38:06.387Z,6.22
2019-01-08T21:40:38.914Z,6.80
2019-01-08T21:43:10.885Z,7.47
2019-01-08T21:45:42.800Z,10.20
2019-01-08T21:48:14.786Z,7.20
2019-01-08T21:50:49.013Z,8.00
2019-01-08T21:53:20.626Z,6.45
2019-01-08T21:55:52.590Z,5.42
2019-01-08T21:58:24.487Z,7.10
2019-01-08T22:00:56.601Z,9.50
2019-01-08T22:03:28.494Z,8.10
2019-01-08T22:06:01.474Z,6.55
2019-01-08T22:08:33.564Z,6.72
2019-01-08T22:11:05.421Z,11.38
2019-01-08T22:13:39.478Z,7.97
2019-01-08T22:16:11.335Z,7.90
2019-01-08T22:18:43.272Z,6.08
2019-01-08T22:21:15.163Z,9.25
2019-01-08T22:23:47.166Z,5.42
2019-01-08T22:26:19.078Z,8.10
2019-01-08T22:28:51.202Z,6.65
2019-01-08T22:31:27.301Z,9.45
2019-01-08T22:34:00.061Z,7.30
2019-01-08T22:36:32.015Z,7.20
2019-01-08T22:39:04.510Z,6.40
2019-01-08T22:41:36.605Z,9.78
2019-01-08T22:44:10.939Z,16.50
2019-01-08T22:46:42.843Z,7.58
2019-01-08T22:49:15.801Z,6.85
2019-01-08T22:51:48.020Z,6.67
2019-01-08T22:54:19.931Z,9.33
2019-01-08T22:56:53.888Z,4.95
2019-01-08T22:59:30.718Z,5.83
2019-01-08T23:02:02.919Z,7.10
2019-01-08T23:04:36.565Z,14.18
2019-01-08T23:07:08.490Z,8.55
2019-01-08T23:09:40.365Z,4.70
2019-01-08T23:12:15.387Z,6.33
2019-01-08T23:14:47.249Z,6.25
2019-01-08T23:17:21.760Z,9.78
2019-01-08T23:19:53.713Z,9.40
2019-01-08T23:22:25.755Z,8.40
2019-01-08T23:24:58.802Z,6.15
2019-01-08T23:27:30.670Z,5.00
2019-01-08T23:30:04.857Z,5.25
2019-01-08T23:32:39.908Z,5.50
2019-01-08T23:35:19.353Z,6.30
2019-01-08T23:37:45.456Z,7.75
2019-01-08T23:40:17.370Z,11.20
2019-01-08T23:42:49.358Z,8.33
2019-01-08T23:45:21.265Z,7.95
2019-01-08T23:47:53.131Z,4.75
2019-01-08T23:50:26.602Z,7.03
2019-01-08T23:53:09.929Z,6.83
2019-01-08T23:55:54.272Z,6.80
2019-01-08T23:58:30.981Z,6.95
